Time;durP1;ratioP1;P1;durP2;ratioP2;P2;SDS_P1;SDS_P2;PMS_P1;PMS_P2;Temp;Humidity;BMP_temperature;BMP_pressure;BME280_temperature;BME280_humidity;BME280_pressure;Samples;Min_cycle;Max_cycle;Signal;HPM_P1;HPM_P2
2022/03/01 00:00:58;;;;;;;7.55;5.10;;;;;8.60;102628.00;;;;5047546;28;20668;-78
2022/03/01 00:03:25;;;;;;;8.55;5.35;;;;;8.60;102633.00;;;;5048387;28;20199;-79
2022/03/01 00:05:52;;;;;;;10.65;5.35;;;;;8.60;102630.00;;;;5048243;28;20203;-78
2022/03/01 00:08:19;;;;;;;9.18;5.95;;;;;8.60;102640.00;;;;5047489;28;20746;-78
2022/03/01 00:10:47;;;;;;;8.63;5.20;;;;;8.60;102635.00;;;;5048426;28;20200;-78
2022/03/01 00:13:14;;;;;;;7.53;5.57;;;;;8.60;102623.00;;;;5048329;28;20227;-78
2022/03/01 00:15:41;;;;;;;11.55;5.63;;;;;8.50;102624.00;;;;5047975;28;20220;-78
2022/03/01 00:18:10;;;;;;;9.43;5.70;;;;;8.50;102620.00;;;;5047204;28;20771;-78
2022/03/01 00:20:37;;;;;;;8.73;5.82;;;;;8.50;102631.00;;;;5047764;28;20199;-78
2022/03/01 00:23:05;;;;;;;9.65;5.97;;;;;8.50;102629.00;;;;5047983;28;20215;-78
2022/03/01 00:25:32;;;;;;;7.22;5.30;;;;;8.50;102622.00;;;;5048228;28;20689;-78
2022/03/01 00:27:59;;;;;;;8.00;5.32;;;;;8.50;102623.00;;;;5047280;28;20235;-78
2022/03/01 00:30:27;;;;;;;9.40;5.65;;;;;8.50;102624.00;;;;5047874;28;20199;-78
2022/03/01 00:32:54;;;;;;;7.50;5.43;;;;;8.50;102628.00;;;;5047860;28;20301;-78
2022/03/01 00:35:22;;;;;;;8.13;5.47;;;;;8.50;102615.00;;;;5047774;28;20249;-78
2022/03/01 00:37:50;;;;;;;8.13;5.45;;;;;8.50;102619.00;;;;5047836;28;20660;-78
2022/03/01 00:40:17;;;;;;;9.13;5.35;;;;;8.50;102621.00;;;;5048362;28;20576;-78
2022/03/01 00:42:44;;;;;;;11.55;5.65;;;;;8.50;102618.00;;;;5047600;28;20204;-78
2022/03/01 00:45:12;;;;;;;7.82;5.07;;;;;8.50;102619.00;;;;5046753;28;20192;-78
2022/03/01 00:47:39;;;;;;;8.23;5.10;;;;;8.50;102622.00;;;;5048089;28;20226;-78
2022/03/01 00:50:07;;;;;;;8.00;5.15;;;;;8.50;102625.00;;;;5049176;28;20219;-78
2022/03/01 00:52:36;;;;;;;8.98;5.55;;;;;8.50;102621.00;;;;5050943;28;20580;-78
2022/03/01 00:55:04;;;;;;;8.55;5.57;;;;;8.50;102621.00;;;;5051416;28;21118;-78
2022/03/01 00:57:31;;;;;;;8.35;5.10;;;;;8.50;102628.00;;;;5055165;28;20254;-78
2022/03/01 00:59:58;;;;;;;8.80;5.78;;;;;8.50;102624.00;;;;5043971;28;20679;-78
2022/03/01 01:02:26;;;;;;;8.38;5.63;;;;;8.50;102626.00;;;;5031400;28;20246;-79
2022/03/01 01:04:53;;;;;;;9.20;6.00;;;;;8.50;102626.00;;;;5032015;28;20188;-79
2022/03/01 01:07:20;;;;;;;9.68;6.28;;;;;8.60;102630.00;;;;5043331;28;20227;-79
2022/03/01 01:09:49;;;;;;;8.57;6.05;;;;;8.50;102624.00;;;;5051350;28;20218;-79
2022/03/01 01:12:16;;;;;;;9.63;5.88;;;;;8.60;102626.00;;;;5051258;28;20211;-79
2022/03/01 01:14:43;;;;;;;9.55;5.20;;;;;8.60;102628.00;;;;5050989;28;20204;-78
2022/03/01 01:17:11;;;;;;;9.88;6.07;;;;;8.60;102628.00;;;;5050762;28;20208;-78
2022/03/01 01:19:38;;;;;;;8.05;5.57;;;;;8.60;102633.00;;;;5050583;28;20192;-78
2022/03/01 01:24:51;;;;;;;10.43;5.75;;;;;8.60;102631.00;;;;5051024;28;20211;-79
2022/03/01 01:27:19;;;;;;;8.95;6.10;;;;;8.70;102632.00;;;;5051089;28;20231;-79
2022/03/01 01:29:46;;;;;;;9.98;5.95;;;;;8.70;102621.00;;;;5051023;28;20207;-78
2022/03/01 01:32:13;;;;;;;9.30;5.53;;;;;8.70;102630.00;;;;5049955;28;20199;-78
2022/03/01 01:34:40;;;;;;;8.65;5.78;;;;;8.70;102638.00;;;;5051193;28;20196;-79
2022/03/01 01:37:07;;;;;;;8.98;5.47;;;;;8.70;102632.00;;;;5050905;28;20212;-78
2022/03/01 01:39:35;;;;;;;12.23;5.90;;;;;8.70;102633.00;;;;5050840;28;20619;-79
2022/03/01 01:42:04;;;;;;;8.95;5.97;;;;;8.80;102630.00;;;;5050188;28;20210;-79
2022/03/01 01:44:31;;;;;;;7.13;4.88;;;;;8.80;102633.00;;;;5050360;28;20207;-79
2022/03/01 01:46:58;;;;;;;7.57;5.55;;;;;8.90;102634.00;;;;5050171;28;20231;-78
2022/03/01 01:49:26;;;;;;;8.98;5.63;;;;;8.90;102632.00;;;;5049701;28;20227;-78
2022/03/01 01:51:54;;;;;;;8.63;6.05;;;;;8.90;102624.00;;;;5050761;28;20208;-79
2022/03/01 01:54:21;;;;;;;6.93;5.45;;;;;8.90;102623.00;;;;5049825;28;20226;-78
2022/03/01 01:56:49;;;;;;;6.88;5.22;;;;;8.90;102616.00;;;;5050298;28;20199;-79
2022/03/01 01:59:17;;;;;;;8.70;5.45;;;;;8.90;102612.00;;;;5049255;28;20204;-78
2022/03/01 02:01:45;;;;;;;9.80;5.80;;;;;9.00;102620.00;;;;5050412;28;20281;-78
2022/03/01 02:04:12;;;;;;;7.93;5.18;;;;;9.00;102619.00;;;;5050332;28;20281;-78
2022/03/01 02:06:50;;;;;;;9.13;5.68;;;;;9.00;102622.00;;;;5062781;28;20249;-78
2022/03/01 02:09:18;;;;;;;8.88;5.60;;;;;9.00;102621.00;;;;5049280;28;20209;-79
2022/03/01 02:11:45;;;;;;;8.27;5.80;;;;;9.10;102619.00;;;;5051019;28;20704;-79
2022/03/01 02:14:13;;;;;;;9.75;6.30;;;;;9.10;102618.00;;;;5049778;28;20211;-78
2022/03/01 02:16:42;;;;;;;8.32;5.85;;;;;9.10;102622.00;;;;5049673;28;20210;-79
2022/03/01 02:19:13;;;;;;;9.38;5.38;;;;;9.10;102616.00;;;;5049206;28;20227;-79
2022/03/01 02:21:47;;;;;;;8.32;5.45;;;;;9.10;102624.00;;;;5050097;28;20207;-78
2022/03/01 02:24:16;;;;;;;9.68;6.20;;;;;9.10;102620.00;;;;5049657;28;20202;-79
2022/03/01 02:26:43;;;;;;;8.20;5.15;;;;;9.10;102617.00;;;;5049554;28;20272;-79
2022/03/01 02:29:10;;;;;;;10.68;6.22;;;;;9.10;102614.00;;;;5050101;28;20207;-78
2022/03/01 02:31:38;;;;;;;10.02;6.35;;;;;9.10;102609.00;;;;5048831;28;20208;-78
2022/03/01 02:34:05;;;;;;;7.95;4.95;;;;;9.20;102604.00;;;;5049063;28;20650;-79
2022/03/01 02:36:33;;;;;;;7.72;5.70;;;;;9.10;102603.00;;;;5049714;28;20215;-79
2022/03/01 02:39:02;;;;;;;9.77;6.75;;;;;9.10;102595.00;;;;5049640;28;20233;-79
2022/03/01 02:41:29;;;;;;;8.25;6.07;;;;;9.20;102588.00;;;;5049259;28;20204;-78
2022/03/01 02:43:56;;;;;;;7.80;5.47;;;;;9.20;102597.00;;;;5048660;28;20261;-79
2022/03/01 02:46:23;;;;;;;9.50;6.60;;;;;9.20;102595.00;;;;5049480;28;20192;-79
2022/03/01 02:48:51;;;;;;;7.75;5.93;;;;;9.20;102588.00;;;;5049575;28;20230;-79
2022/03/01 02:51:18;;;;;;;9.88;5.93;;;;;9.20;102581.00;;;;5049443;28;20203;-79
2022/03/01 02:53:45;;;;;;;11.10;6.45;;;;;9.20;102587.00;;;;5049834;28;20653;-79
2022/03/01 02:56:14;;;;;;;8.90;6.32;;;;;9.20;102576.00;;;;5048715;28;20207;-79
2022/03/01 02:58:41;;;;;;;9.27;5.88;;;;;9.20;102572.00;;;;5049066;28;20254;-79
2022/03/01 03:01:09;;;;;;;10.95;6.85;;;;;9.20;102577.00;;;;5048503;28;20226;-79
2022/03/01 03:03:37;;;;;;;10.27;6.75;;;;;9.20;102575.00;;;;5049517;28;20306;-79
2022/03/01 03:06:04;;;;;;;10.77;6.38;;;;;9.20;102581.00;;;;5049210;28;20207;-79
2022/03/01 03:08:32;;;;;;;9.02;6.00;;;;;9.20;102580.00;;;;5049151;28;20289;-79
2022/03/01 03:10:59;;;;;;;8.88;5.45;;;;;9.20;102576.00;;;;5048819;28;20191;-78
2022/03/01 03:13:28;;;;;;;10.13;6.40;;;;;9.20;102578.00;;;;5048231;28;20188;-79
2022/03/01 03:15:55;;;;;;;8.05;5.55;;;;;9.20;102580.00;;;;5054421;28;20237;-79
2022/03/01 03:18:23;;;;;;;11.65;6.47;;;;;9.30;102578.00;;;;5055331;28;20289;-78
2022/03/01 03:20:51;;;;;;;9.07;6.35;;;;;9.20;102577.00;;;;5048728;28;20199;-79
2022/03/01 03:23:18;;;;;;;9.38;5.88;;;;;9.30;102589.00;;;;5048395;28;20552;-79
2022/03/01 03:25:45;;;;;;;9.75;6.07;;;;;9.30;102584.00;;;;5048330;28;20653;-79
2022/03/01 03:28:12;;;;;;;9.30;6.35;;;;;9.30;102578.00;;;;5048870;28;20708;-78
2022/03/01 03:30:41;;;;;;;9.80;6.22;;;;;9.30;102576.00;;;;5048821;28;20195;-79
2022/03/01 03:33:08;;;;;;;9.90;6.40;;;;;9.30;102582.00;;;;5048712;28;20290;-79
2022/03/01 03:35:35;;;;;;;10.68;5.75;;;;;9.30;102576.00;;;;5048492;28;20257;-79
2022/03/01 03:38:03;;;;;;;8.15;5.68;;;;;9.30;102577.00;;;;5047806;28;20192;-79
2022/03/01 03:40:30;;;;;;;9.57;6.25;;;;;9.30;102586.00;;;;5049098;28;20219;-79
2022/03/01 03:42:57;;;;;;;9.57;6.13;;;;;9.30;102584.00;;;;5048223;28;20192;-79
2022/03/01 03:45:25;;;;;;;10.57;6.55;;;;;9.40;102575.00;;;;5048590;28;20617;-79
2022/03/01 03:47:53;;;;;;;9.02;5.88;;;;;9.30;102570.00;;;;5048612;28;20255;-79
2022/03/01 03:50:21;;;;;;;10.45;7.03;;;;;9.40;102585.00;;;;5048071;28;20673;-79
2022/03/01 03:52:48;;;;;;;10.25;6.18;;;;;9.40;102578.00;;;;5048271;28;20249;-79
2022/03/01 03:55:15;;;;;;;9.27;6.22;;;;;9.40;102584.00;;;;5048303;28;20211;-79
2022/03/01 03:57:42;;;;;;;9.50;5.68;;;;;9.40;102580.00;;;;5040710;28;20258;-79
2022/03/01 04:00:15;;;;;;;8.20;5.85;;;;;9.40;102580.00;;;;5038196;28;20484;-79
2022/03/01 04:02:42;;;;;;;9.70;6.13;;;;;9.40;102577.00;;;;5048269;28;20206;-78
2022/03/01 04:05:12;;;;;;;9.48;6.55;;;;;9.40;102578.00;;;;5048154;28;20219;-79
2022/03/01 04:07:40;;;;;;;9.77;6.38;;;;;9.40;102574.00;;;;5047788;28;20276;-79
2022/03/01 04:10:08;;;;;;;8.80;5.90;;;;;9.40;102585.00;;;;5048149;28;20245;-79
2022/03/01 04:12:35;;;;;;;10.13;7.00;;;;;9.50;102585.00;;;;5047478;28;20257;-78
2022/03/01 04:15:04;;;;;;;10.48;6.47;;;;;9.40;102578.00;;;;5047958;28;20207;-79
2022/03/01 04:17:31;;;;;;;10.02;6.80;;;;;9.50;102581.00;;;;5047196;28;20930;-79
2022/03/01 04:19:59;;;;;;;8.30;5.93;;;;;9.50;102582.00;;;;5047418;28;20756;-79
2022/03/01 04:22:29;;;;;;;9.43;5.57;;;;;9.50;102584.00;;;;5048894;28;20199;-79
2022/03/01 04:24:58;;;;;;;9.73;5.88;;;;;9.50;102576.00;;;;5049080;28;20294;-78
2022/03/01 04:27:25;;;;;;;10.88;6.97;;;;;9.50;102580.00;;;;5061632;28;20190;-79
2022/03/01 04:29:52;;;;;;;9.43;6.18;;;;;9.50;102581.00;;;;5054089;28;20642;-79
2022/03/01 04:32:20;;;;;;;10.77;6.22;;;;;9.50;102576.00;;;;5051728;28;20700;-79
2022/03/01 04:34:47;;;;;;;8.35;5.70;;;;;9.60;102577.00;;;;5051678;28;20199;-79
2022/03/01 04:37:14;;;;;;;10.02;6.18;;;;;9.60;102583.00;;;;5051937;28;20203;-79
2022/03/01 04:39:43;;;;;;;11.18;6.28;;;;;9.60;102572.00;;;;5052032;28;20442;-79
2022/03/01 04:42:10;;;;;;;9.05;6.07;;;;;9.60;102570.00;;;;5051356;28;20261;-78
2022/03/01 04:44:37;;;;;;;9.52;6.32;;;;;9.60;102570.00;;;;5050131;28;20196;-79
2022/03/01 04:47:05;;;;;;;9.90;6.75;;;;;9.60;102576.00;;;;5050376;28;20265;-79
2022/03/01 04:49:33;;;;;;;7.85;6.13;;;;;9.60;102564.00;;;;5051248;28;20653;-78
2022/03/01 04:52:00;;;;;;;9.32;5.85;;;;;9.70;102568.00;;;;5050783;28;20230;-78
2022/03/01 04:54:27;;;;;;;10.75;6.60;;;;;9.70;102570.00;;;;5051566;28;20744;-78
2022/03/01 04:56:57;;;;;;;8.85;6.13;;;;;9.70;102569.00;;;;5050792;28;20199;-78
2022/03/01 04:59:24;;;;;;;10.25;6.38;;;;;9.70;102561.00;;;;5047327;28;20200;-78
2022/03/01 05:01:51;;;;;;;11.05;6.65;;;;;9.70;102561.00;;;;5031159;28;20204;-78
2022/03/01 05:04:18;;;;;;;9.90;6.38;;;;;9.70;102550.00;;;;5035927;28;20212;-78
2022/03/01 05:06:46;;;;;;;10.77;6.60;;;;;9.70;102557.00;;;;5051038;28;20211;-78
2022/03/01 05:09:13;;;;;;;7.63;5.70;;;;;9.70;102549.00;;;;5051639;28;20313;-78
2022/03/01 05:11:40;;;;;;;9.18;6.75;;;;;9.70;102544.00;;;;5051461;28;20192;-78
2022/03/01 05:14:09;;;;;;;10.15;6.32;;;;;9.70;102549.00;;;;5049991;28;20202;-78
2022/03/01 05:16:37;;;;;;;9.43;6.68;;;;;9.80;102546.00;;;;5050767;28;20665;-78
2022/03/01 05:19:04;;;;;;;9.73;6.15;;;;;9.80;102547.00;;;;5050448;28;20227;-78
2022/03/01 05:21:31;;;;;;;9.02;5.85;;;;;9.80;102545.00;;;;5050129;28;20303;-78
2022/03/01 05:23:59;;;;;;;10.57;6.50;;;;;9.80;102551.00;;;;5049807;28;20203;-78
2022/03/01 05:26:26;;;;;;;10.15;5.85;;;;;9.80;102551.00;;;;5049986;28;20565;-78
2022/03/01 05:28:53;;;;;;;8.77;6.07;;;;;9.80;102549.00;;;;5049659;28;20235;-79
2022/03/01 05:31:22;;;;;;;9.00;5.63;;;;;9.80;102547.00;;;;5049230;28;20204;-78
2022/03/01 05:33:49;;;;;;;9.00;6.05;;;;;9.80;102546.00;;;;5062029;28;20207;-78
2022/03/01 05:36:16;;;;;;;8.75;5.97;;;;;9.80;102545.00;;;;5048935;28;20245;-78
2022/03/01 05:38:44;;;;;;;12.25;7.03;;;;;9.80;102547.00;;;;5049341;28;20207;-78
2022/03/01 05:41:12;;;;;;;9.00;6.15;;;;;9.80;102547.00;;;;5049479;28;20610;-78
2022/03/01 05:43:40;;;;;;;8.48;5.95;;;;;9.80;102548.00;;;;5049333;28;20200;-78
2022/03/01 05:46:07;;;;;;;11.50;5.97;;;;;9.80;102542.00;;;;5049002;28;20261;-78
2022/03/01 05:48:35;;;;;;;9.40;6.38;;;;;9.80;102536.00;;;;5049814;28;20762;-78
2022/03/01 05:51:04;;;;;;;9.85;6.18;;;;;9.80;102536.00;;;;5049477;28;20223;-79
2022/03/01 05:53:31;;;;;;;9.35;6.13;;;;;9.80;102536.00;;;;5048926;28;20203;-78
2022/03/01 05:55:58;;;;;;;11.60;5.93;;;;;9.90;102534.00;;;;5048825;28;20613;-78
2022/03/01 05:58:26;;;;;;;11.20;5.97;;;;;9.90;102542.00;;;;5049179;28;20196;-78
2022/03/01 06:00:53;;;;;;;10.02;5.57;;;;;9.90;102550.00;;;;5049035;28;20211;-78
2022/03/01 06:03:20;;;;;;;8.52;6.03;;;;;9.90;102549.00;;;;5049493;28;20253;-79
2022/03/01 06:05:49;;;;;;;8.98;5.53;;;;;9.90;102539.00;;;;5049716;28;20207;-78
2022/03/01 06:08:16;;;;;;;7.72;5.82;;;;;9.90;102534.00;;;;5049188;28;20229;-78
2022/03/01 06:10:43;;;;;;;8.43;5.78;;;;;9.90;102539.00;;;;5048813;28;20214;-78
2022/03/01 06:13:10;;;;;;;10.07;6.57;;;;;9.90;102549.00;;;;5048881;28;20206;-78
2022/03/01 06:15:38;;;;;;;8.50;5.55;;;;;9.90;102556.00;;;;5049011;28;20206;-78
2022/03/01 06:18:05;;;;;;;8.63;5.72;;;;;9.90;102544.00;;;;5010823;28;1078472;-77
2022/03/01 06:20:32;;;;;;;7.38;5.57;;;;;9.90;102545.00;;;;5050290;28;20211;-78
2022/03/01 06:23:01;;;;;;;9.15;6.30;;;;;9.90;102547.00;;;;5050306;28;20204;-78
2022/03/01 06:25:28;;;;;;;9.45;6.30;;;;;10.00;102544.00;;;;5049907;28;20210;-78
2022/03/01 06:27:56;;;;;;;9.77;6.00;;;;;10.00;102540.00;;;;5049722;28;20226;-78
2022/03/01 06:30:24;;;;;;;8.93;5.88;;;;;10.00;102545.00;;;;5050124;28;20706;-78
2022/03/01 06:32:52;;;;;;;8.63;5.88;;;;;10.00;102552.00;;;;5048751;28;20203;-78
2022/03/01 06:35:19;;;;;;;8.60;5.32;;;;;10.00;102560.00;;;;5049857;28;20206;-78
2022/03/01 06:37:46;;;;;;;9.60;6.72;;;;;10.00;102565.00;;;;5050294;28;20199;-78
2022/03/01 06:40:15;;;;;;;9.27;5.60;;;;;10.00;102566.00;;;;5048802;28;20207;-78
2022/03/01 06:42:43;;;;;;;8.27;5.57;;;;;10.10;102570.00;;;;5050053;28;20192;-78
2022/03/01 06:45:11;;;;;;;9.77;6.28;;;;;10.10;102575.00;;;;5053215;28;20579;-78
2022/03/01 06:47:38;;;;;;;9.23;6.30;;;;;10.10;102582.00;;;;5044347;28;20212;-78
2022/03/01 06:50:07;;;;;;;8.95;6.05;;;;;10.10;102584.00;;;;5048852;28;20230;-79
2022/03/01 06:52:35;;;;;;;9.30;6.35;;;;;10.20;102589.00;;;;5049772;28;20206;-78
2022/03/01 06:55:03;;;;;;;8.82;6.10;;;;;10.20;102587.00;;;;5049090;28;20203;-78
2022/03/01 06:57:32;;;;;;;10.82;6.97;;;;;10.20;102588.00;;;;5048797;28;20807;-78
2022/03/01 06:59:59;;;;;;;9.02;6.00;;;;;10.20;102604.00;;;;5041325;28;20212;-78
2022/03/01 07:02:28;;;;;;;10.52;6.50;;;;;10.20;102607.00;;;;5029465;28;20216;-79
2022/03/01 07:04:56;;;;;;;12.07;6.50;;;;;10.30;102604.00;;;;5047182;28;20203;-78
2022/03/01 07:07:24;;;;;;;8.32;5.47;;;;;10.30;102595.00;;;;5049327;28;20210;-78
2022/03/01 07:09:51;;;;;;;10.60;5.78;;;;;10.30;102597.00;;;;5049409;28;20223;-78
2022/03/01 07:12:18;;;;;;;9.73;5.88;;;;;10.30;102597.00;;;;5048601;28;20227;-79
2022/03/01 07:14:47;;;;;;;9.85;6.13;;;;;10.30;102599.00;;;;5048447;28;20214;-78
2022/03/01 07:17:16;;;;;;;10.70;7.00;;;;;10.40;102598.00;;;;5048635;28;20581;-78
2022/03/01 07:19:44;;;;;;;10.00;6.00;;;;;10.40;102590.00;;;;5048821;28;20814;-79
2022/03/01 07:22:11;;;;;;;9.63;6.18;;;;;10.40;102593.00;;;;5048612;28;20218;-78
2022/03/01 07:24:38;;;;;;;10.43;6.13;;;;;10.50;102595.00;;;;5048906;28;20245;-79
2022/03/01 07:27:05;;;;;;;9.23;6.78;;;;;10.50;102591.00;;;;5049277;28;20207;-79
2022/03/01 07:29:33;;;;;;;8.68;5.72;;;;;10.60;102602.00;;;;5048606;28;20238;-79
2022/03/01 07:32:03;;;;;;;10.82;7.05;;;;;10.60;102606.00;;;;5048453;28;20612;-79
2022/03/01 07:34:30;;;;;;;8.70;6.15;;;;;10.60;102602.00;;;;5049345;28;20707;-79
2022/03/01 07:36:57;;;;;;;9.13;6.72;;;;;10.70;102608.00;;;;5047957;28;20588;-79
2022/03/01 07:39:24;;;;;;;10.43;7.28;;;;;10.70;102619.00;;;;5049204;28;20662;-79
2022/03/01 07:41:52;;;;;;;8.45;6.40;;;;;10.80;102607.00;;;;5048369;28;20202;-78
2022/03/01 07:44:20;;;;;;;11.52;6.90;;;;;10.80;102611.00;;;;5047343;28;20271;-79
2022/03/01 07:46:47;;;;;;;10.98;7.07;;;;;10.80;102605.00;;;;5047569;28;20206;-79
2022/03/01 07:49:16;;;;;;;9.90;6.78;;;;;10.90;102597.00;;;;5048048;28;20237;-79
2022/03/01 07:51:43;;;;;;;10.63;6.57;;;;;10.90;102595.00;;;;5060295;28;20743;-78
2022/03/01 07:54:11;;;;;;;10.25;7.03;;;;;10.90;102605.00;;;;5047830;28;20214;-78
2022/03/01 07:56:39;;;;;;;11.13;7.35;;;;;10.90;102610.00;;;;5048333;28;20203;-78
2022/03/01 07:59:07;;;;;;;11.50;7.25;;;;;11.00;102610.00;;;;5047871;28;20234;-78
2022/03/01 08:01:34;;;;;;;11.43;7.32;;;;;11.00;102616.00;;;;5046697;28;20202;-78
2022/03/01 08:04:02;;;;;;;10.00;6.72;;;;;11.10;102626.00;;;;5048067;28;20199;-79
2022/03/01 08:06:30;;;;;;;10.63;7.00;;;;;11.10;102632.00;;;;5047498;28;20199;-79
2022/03/01 08:08:58;;;;;;;12.65;7.43;;;;;11.20;102628.00;;;;5048082;28;20230;-79
2022/03/01 08:11:25;;;;;;;10.60;6.70;;;;;11.30;102640.00;;;;5047094;28;20664;-79
2022/03/01 08:13:52;;;;;;;8.80;6.15;;;;;11.30;102642.00;;;;5047824;28;20199;-79
2022/03/01 08:16:20;;;;;;;10.93;7.28;;;;;11.30;102642.00;;;;5047843;28;20277;-78
2022/03/01 08:18:47;;;;;;;10.13;6.70;;;;;11.40;102648.00;;;;5046941;28;20346;-79
2022/03/01 08:21:14;;;;;;;10.55;7.57;;;;;11.40;102643.00;;;;5047647;28;20250;-79
2022/03/01 08:23:43;;;;;;;14.07;7.47;;;;;11.50;102645.00;;;;5048179;28;20212;-79
2022/03/01 08:26:10;;;;;;;11.27;7.82;;;;;11.50;102645.00;;;;5047422;28;20219;-79
2022/03/01 08:28:40;;;;;;;10.82;7.63;;;;;11.60;102645.00;;;;5047671;28;20639;-78
2022/03/01 08:31:07;;;;;;;12.00;8.68;;;;;11.60;102652.00;;;;5047980;28;20214;-79
2022/03/01 08:33:35;;;;;;;9.27;6.97;;;;;11.60;102648.00;;;;5047860;28;20558;-79
2022/03/01 08:36:02;;;;;;;12.07;7.88;;;;;11.70;102657.00;;;;5047494;28;20630;-78
2022/03/01 08:38:29;;;;;;;12.82;8.27;;;;;11.70;102645.00;;;;5047296;28;20207;-79
2022/03/01 08:40:58;;;;;;;11.13;7.60;;;;;11.80;102656.00;;;;5047387;28;20206;-79
2022/03/01 08:43:25;;;;;;;12.38;8.77;;;;;11.80;102646.00;;;;5048427;28;20199;-79
2022/03/01 08:45:53;;;;;;;13.27;7.97;;;;;11.80;102663.00;;;;5047958;28;20632;-79
2022/03/01 08:48:20;;;;;;;11.00;7.65;;;;;11.90;102654.00;;;;5048280;28;20741;-79
2022/03/01 08:50:48;;;;;;;11.60;8.73;;;;;11.90;102664.00;;;;5047982;28;20698;-79
2022/03/01 08:53:15;;;;;;;10.80;8.25;;;;;11.90;102662.00;;;;5047813;28;20640;-79
2022/03/01 08:55:43;;;;;;;10.52;7.78;;;;;12.00;102673.00;;;;5047335;28;20206;-79
2022/03/01 08:58:11;;;;;;;12.52;8.48;;;;;12.00;102668.00;;;;5047961;28;20200;-79
2022/03/01 09:00:39;;;;;;;12.07;8.15;;;;;12.00;102673.00;;;;5059005;28;20206;-79
2022/03/01 09:03:06;;;;;;;12.02;8.15;;;;;12.10;102678.00;;;;5047142;28;20200;-79
2022/03/01 09:05:34;;;;;;;12.50;8.70;;;;;12.10;102674.00;;;;5047712;28;20204;-79
2022/03/01 09:08:01;;;;;;;11.57;8.25;;;;;12.20;102674.00;;;;5047647;28;20215;-79
2022/03/01 09:10:28;;;;;;;13.20;8.75;;;;;12.20;102677.00;;;;5048040;28;20753;-79
2022/03/01 09:12:58;;;;;;;13.18;7.75;;;;;12.20;102679.00;;;;5051303;28;20261;-79
2022/03/01 09:15:30;;;;;;;12.85;9.13;;;;;12.30;102682.00;;;;5050776;28;20238;-79
2022/03/01 09:17:58;;;;;;;10.90;7.90;;;;;12.40;102684.00;;;;5051389;28;20219;-79
2022/03/01 09:20:26;;;;;;;11.48;9.18;;;;;12.50;102685.00;;;;5051034;28;20256;-79
2022/03/01 09:22:55;;;;;;;10.73;8.68;;;;;12.60;102676.00;;;;5051416;28;20586;-79
2022/03/01 09:25:22;;;;;;;11.48;8.07;;;;;12.60;102672.00;;;;5051697;28;20204;-79
2022/03/01 09:27:49;;;;;;;11.90;8.65;;;;;12.70;102671.00;;;;5051582;28;20203;-79
2022/03/01 09:30:18;;;;;;;11.60;8.52;;;;;12.80;102670.00;;;;5050223;28;20227;-79
2022/03/01 09:32:46;;;;;;;12.55;8.80;;;;;12.80;102681.00;;;;5051190;28;20218;-80
2022/03/01 09:35:14;;;;;;;13.00;8.30;;;;;12.90;102684.00;;;;5051132;28;20658;-79
2022/03/01 09:37:42;;;;;;;13.07;8.48;;;;;13.00;102678.00;;;;5051071;28;20208;-79
2022/03/01 09:40:12;;;;;;;15.00;9.05;;;;;13.00;102689.00;;;;5049801;28;20785;-78
2022/03/01 09:42:40;;;;;;;12.50;8.93;;;;;13.10;102680.00;;;;5050195;28;20294;-78
2022/03/01 09:45:08;;;;;;;11.88;8.55;;;;;13.20;102692.00;;;;5050171;28;20288;-79
2022/03/01 09:47:36;;;;;;;11.18;7.65;;;;;13.20;102688.00;;;;5049171;28;20588;-78
2022/03/01 09:50:06;;;;;;;11.13;7.88;;;;;13.20;102681.00;;;;5049720;28;20239;-78
2022/03/01 09:52:34;;;;;;;14.85;7.80;;;;;13.30;102686.00;;;;5051020;28;20212;-78
2022/03/01 09:55:01;;;;;;;10.85;8.45;;;;;13.40;102682.00;;;;5050136;28;20211;-78
2022/03/01 09:57:29;;;;;;;11.93;8.18;;;;;13.40;102682.00;;;;5050599;28;20538;-78
2022/03/01 09:59:56;;;;;;;12.38;8.38;;;;;13.50;102681.00;;;;5049048;28;20715;-78
2022/03/01 10:02:34;;;;;;;11.40;8.75;;;;;13.50;102678.00;;;;5049876;28;20207;-78
2022/03/01 10:05:01;;;;;;;12.45;7.68;;;;;13.60;102688.00;;;;5051200;28;20206;-78
2022/03/01 10:07:31;;;;;;;10.93;7.90;;;;;13.70;102693.00;;;;5060804;28;20195;-79
2022/03/01 10:10:06;;;;;;;12.00;8.38;;;;;13.70;102698.00;;;;5049715;28;20234;-78
2022/03/01 10:12:33;;;;;;;11.32;7.55;;;;;13.90;102688.00;;;;5049303;28;20195;-78
2022/03/01 10:15:06;;;;;;;12.48;8.38;;;;;13.90;102697.00;;;;5049522;28;20658;-78
2022/03/01 10:17:39;;;;;;;11.68;8.43;;;;;14.00;102701.00;;;;5049724;28;20266;-78
2022/03/01 10:20:09;;;;;;;8.27;6.72;;;;;14.10;102696.00;;;;5049896;28;20206;-78
2022/03/01 10:22:44;;;;;;;14.35;7.97;;;;;14.10;102689.00;;;;5048622;28;20206;-79
2022/03/01 10:25:12;;;;;;;12.05;8.93;;;;;14.20;102692.00;;;;5049859;28;20289;-79
2022/03/01 10:27:39;;;;;;;8.43;7.28;;;;;14.30;102696.00;;;;5049562;28;20200;-78
2022/03/01 10:30:08;;;;;;;10.55;7.40;;;;;14.30;102698.00;;;;5050155;28;20266;-78
2022/03/01 10:32:36;;;;;;;11.15;7.88;;;;;14.40;102697.00;;;;5049034;28;20265;-78
2022/03/01 10:35:06;;;;;;;12.32;7.63;;;;;14.40;102699.00;;;;5049744;28;20253;-78
2022/03/01 10:37:35;;;;;;;10.00;7.60;;;;;14.50;102697.00;;;;5049758;28;20216;-78
2022/03/01 10:40:19;;;;;;;11.20;8.05;;;;;14.40;102688.00;;;;5049956;28;20215;-80
2022/03/01 10:42:58;;;;;;;11.07;8.52;;;;;14.60;102700.00;;;;5049310;28;20191;-78
2022/03/01 10:45:35;;;;;;;10.02;7.25;;;;;14.60;102692.00;;;;5048787;28;20257;-78
2022/03/01 10:48:04;;;;;;;10.90;7.70;;;;;14.70;102687.00;;;;5049493;28;20282;-78
2022/03/01 10:50:31;;;;;;;10.20;7.00;;;;;14.70;102688.00;;;;5049491;28;20717;-78
2022/03/01 10:52:59;;;;;;;13.25;8.65;;;;;14.80;102698.00;;;;5049193;28;20199;-78
2022/03/01 10:55:32;;;;;;;11.75;8.10;;;;;14.80;102699.00;;;;5048868;28;20226;-79
2022/03/01 10:58:01;;;;;;;11.30;8.40;;;;;14.80;102698.00;;;;5048669;28;20693;-78
2022/03/01 11:00:28;;;;;;;12.40;7.88;;;;;14.90;102703.00;;;;5041453;28;20200;-78
2022/03/01 11:02:56;;;;;;;10.10;7.28;;;;;14.90;102711.00;;;;5046646;28;20207;-79
2022/03/01 11:05:24;;;;;;;11.10;7.53;;;;;14.90;102706.00;;;;5049177;28;20199;-78
2022/03/01 11:07:53;;;;;;;14.00;8.32;;;;;15.00;102712.00;;;;5048531;28;20233;-78
2022/03/01 11:10:22;;;;;;;10.85;7.97;;;;;15.00;102711.00;;;;5048939;28;20709;-79
2022/03/01 11:12:53;;;;;;;10.38;7.50;;;;;15.00;102713.00;;;;5048928;28;20203;-78
2022/03/01 11:15:29;;;;;;;13.65;7.63;;;;;15.00;102706.00;;;;5050325;28;20195;-78
2022/03/01 11:18:03;;;;;;;10.85;7.70;;;;;15.00;102702.00;;;;5046721;28;20227;-78
2022/03/01 11:20:35;;;;;;;8.80;6.28;;;;;15.10;102698.00;;;;5048992;28;20208;-78
2022/03/01 11:23:06;;;;;;;10.60;7.57;;;;;15.10;102687.00;;;;5048068;28;20199;-79
2022/03/01 11:25:38;;;;;;;11.18;7.80;;;;;15.10;102688.00;;;;5048887;28;20214;-78
2022/03/01 11:28:10;;;;;;;10.88;7.25;;;;;15.10;102693.00;;;;5048341;28;20200;-78
2022/03/01 11:30:40;;;;;;;9.27;6.97;;;;;15.10;102694.00;;;;5048667;28;20265;-78
2022/03/01 11:33:07;;;;;;;8.98;6.82;;;;;15.20;102690.00;;;;5047535;28;20206;-78
2022/03/01 11:35:38;;;;;;;10.25;7.65;;;;;15.20;102682.00;;;;5048491;28;20203;-78
2022/03/01 11:38:07;;;;;;;9.77;7.05;;;;;15.20;102685.00;;;;5048753;28;20206;-78
2022/03/01 11:40:37;;;;;;;9.93;7.18;;;;;15.20;102682.00;;;;5048853;28;20196;-78
2022/03/01 11:43:11;;;;;;;11.07;8.32;;;;;15.20;102680.00;;;;5048411;28;20198;-78
2022/03/01 11:45:38;;;;;;;12.27;7.80;;;;;15.30;102678.00;;;;5048393;28;20596;-79
2022/03/01 11:48:07;;;;;;;10.18;7.93;;;;;15.30;102678.00;;;;5048313;28;20210;-79
2022/03/01 11:50:35;;;;;;;10.85;7.20;;;;;15.40;102674.00;;;;5048647;28;20696;-79
2022/03/01 11:53:06;;;;;;;13.02;8.02;;;;;15.40;102673.00;;;;5047560;28;20207;-79
2022/03/01 11:55:40;;;;;;;11.75;8.15;;;;;15.50;102671.00;;;;5048109;28;20601;-79
2022/03/01 11:58:10;;;;;;;11.23;7.57;;;;;15.60;102665.00;;;;5048333;28;20286;-79
2022/03/01 12:00:40;;;;;;;12.07;8.65;;;;;15.70;102660.00;;;;5047194;28;20220;-79
2022/03/01 12:03:10;;;;;;;11.02;7.93;;;;;15.80;102659.00;;;;5048302;28;20286;-79
2022/03/01 12:05:38;;;;;;;11.93;7.75;;;;;16.00;102654.00;;;;5048180;28;20244;-79
2022/03/01 12:08:08;;;;;;;10.13;7.57;;;;;16.10;102645.00;;;;5048161;28;20674;-79
2022/03/01 12:10:38;;;;;;;13.65;8.05;;;;;16.20;102652.00;;;;5047714;28;20713;-78
2022/03/01 12:13:07;;;;;;;14.27;9.30;;;;;16.30;102645.00;;;;5048034;28;20368;-78
2022/03/01 12:15:40;;;;;;;12.15;8.02;;;;;16.40;102641.00;;;;5047650;28;20192;-79